Station: EBLG - 25/02/2021 04:50Z (il y a 15 minutes)
EBLG 250450Z 18010KT CAVOK 11/06 Q1026 NOSIG
Vent du 180º - 10 kt
Visibilité > 10 km et plafond haut ou pas de nuages significatifs
Température: +11ºC - Point de rosée: +06ºC - QNH: 1026 hPa
Pas de changement significatif prévu dans les 2 heures qui suivent l'observation